Time;durP1;ratioP1;P1;durP2;ratioP2;P2;SDS_P1;SDS_P2;PMS_P1;PMS_P2;Temp;Humidity;BMP_temperature;BMP_pressure;BME280_temperature;BME280_humidity;BME280_pressure;Samples;Min_cycle;Max_cycle;Signal;HPM_P1;HPM_P2
2021/10/22 00:01:39;;;;;;;8.50;7.40;;;;;;;11.38;55.72;99480.09;5007203;27;97221;-89
2021/10/22 00:04:05;;;;;;;7.95;7.22;;;;;;;11.37;56.17;99486.28;5021589;27;101693;-89
2021/10/22 00:06:30;;;;;;;7.90;7.15;;;;;;;11.33;56.26;99489.06;5021460;27;99833;-90
2021/10/22 00:08:56;;;;;;;7.68;7.00;;;;;;;11.37;56.61;99491.53;5019262;28;96810;-89
2021/10/22 00:11:24;;;;;;;7.88;7.22;;;;;;;11.33;56.47;99493.47;5002265;27;97480;-90
2021/10/22 00:13:49;;;;;;;9.00;7.32;;;;;;;11.26;56.68;99503.44;5030375;27;101581;-90
2021/10/22 00:16:16;;;;;;;9.63;7.28;;;;;;;11.23;56.77;99508.00;5012472;27;100200;-89
2021/10/22 00:18:42;;;;;;;7.95;7.35;;;;;;;11.25;56.92;99525.34;5020636;27;96680;-88
2021/10/22 00:21:08;;;;;;;7.53;6.70;;;;;;;11.23;57.25;99521.97;5034118;28;97259;-89
2021/10/22 00:23:33;;;;;;;8.80;7.43;;;;;;;11.20;56.82;99531.75;5000373;28;101317;-90
2021/10/22 00:25:59;;;;;;;7.68;6.85;;;;;;;11.16;57.36;99525.81;5005193;27;101314;-89
2021/10/22 00:28:25;;;;;;;8.32;7.50;;;;;;;11.17;56.99;99522.28;5043953;27;96758;-90
2021/10/22 00:30:50;;;;;;;12.73;8.32;;;;;;;11.17;56.62;99537.16;5012086;27;96839;-90
2021/10/22 00:33:16;;;;;;;10.70;8.23;;;;;;;11.09;56.35;99529.69;5018367;28;98350;-89
2021/10/22 00:35:41;;;;;;;9.70;8.00;;;;;;;11.11;56.36;99522.56;5016297;27;101437;-90
2021/10/22 00:38:07;;;;;;;11.43;8.10;;;;;;;11.03;55.80;99522.94;4991739;28;96858;-89
2021/10/22 00:40:33;;;;;;;8.95;8.00;;;;;;;10.96;55.54;99526.78;5021885;27;97324;-89
2021/10/22 00:42:59;;;;;;;10.23;8.27;;;;;;;10.95;54.77;99524.25;5028472;28;101156;-89
2021/10/22 00:45:25;;;;;;;9.43;7.82;;;;;;;10.93;55.01;99529.56;5000698;28;101409;-89
2021/10/22 00:47:50;;;;;;;10.35;8.02;;;;;;;10.99;54.91;99525.78;5019398;27;97102;-90
2021/10/22 00:50:17;;;;;;;11.25;7.72;;;;;;;10.92;54.87;99532.28;5017599;28;98047;-90
2021/10/22 00:52:45;;;;;;;9.02;7.50;;;;;;;10.93;55.00;99529.56;5017406;27;101183;-89
2021/10/22 00:55:11;;;;;;;8.82;7.55;;;;;;;10.86;54.19;99528.16;5003949;27;100452;-89
2021/10/22 00:57:40;;;;;;;11.93;7.90;;;;;;;10.90;54.31;99536.75;5021343;27;97276;-89
2021/10/22 01:00:06;;;;;;;7.80;7.00;;;;;;;10.92;53.98;99548.03;5012384;28;97019;-89
2021/10/22 01:02:36;;;;;;;8.82;7.25;;;;;;;10.84;53.66;99540.50;5002844;28;100348;-89
2021/10/22 01:05:05;;;;;;;9.25;7.60;;;;;;;10.74;53.41;99547.13;5013581;27;98389;-89
2021/10/22 01:07:31;;;;;;;9.02;7.70;;;;;;;10.74;53.57;99560.25;5017464;27;96787;-90
2021/10/22 01:09:57;;;;;;;9.48;7.32;;;;;;;10.74;52.70;99552.38;5020973;27;96827;-89
2021/10/22 01:12:23;;;;;;;7.90;7.20;;;;;;;10.71;52.66;99552.53;5025279;27;101063;-90
2021/10/22 01:14:50;;;;;;;11.10;7.55;;;;;;;10.74;52.70;99570.75;5020234;27;101722;-89
2021/10/22 01:17:41;;;;;;;9.18;7.50;;;;;;;10.71;52.01;99576.16;5005797;28;96997;-89
2021/10/22 01:20:11;;;;;;;12.98;7.90;;;;;;;10.67;51.81;99578.03;5017494;27;96637;-88
2021/10/22 01:22:38;;;;;;;10.43;7.22;;;;;;;10.54;51.97;99567.25;5000047;28;101298;-89
2021/10/22 01:25:08;;;;;;;9.65;7.25;;;;;;;10.54;51.89;99588.25;5017129;28;100303;-89
2021/10/22 01:27:34;;;;;;;11.10;7.47;;;;;;;10.57;52.05;99593.38;4998843;28;97123;-89
2021/10/22 01:30:04;;;;;;;11.00;7.47;;;;;;;10.55;51.41;99602.22;5017955;27;97260;-89
2021/10/22 01:32:30;;;;;;;12.05;7.80;;;;;;;10.53;51.73;99601.44;5010220;27;100531;-89
2021/10/22 01:34:56;;;;;;;12.10;7.60;;;;;;;10.52;51.21;99605.84;5021164;27;98598;-88
2021/10/22 01:37:22;;;;;;;8.75;7.43;;;;;;;10.57;50.85;99603.88;5016741;28;97173;-90
2021/10/22 01:39:47;;;;;;;7.93;7.22;;;;;;;10.53;50.59;99602.31;5020443;27;96887;-89
2021/10/22 01:42:13;;;;;;;11.05;7.60;;;;;;;10.48;50.68;99614.78;5004064;27;100000;-88
2021/10/22 01:44:39;;;;;;;8.02;7.32;;;;;;;10.46;51.10;99615.75;5004029;27;101564;-88
2021/10/22 01:47:04;;;;;;;9.95;7.22;;;;;;;10.45;50.96;99628.03;5004137;27;96701;-89
2021/10/22 01:49:30;;;;;;;8.77;7.07;;;;;;;10.47;50.91;99626.22;5017136;28;96786;-89
2021/10/22 01:51:55;;;;;;;9.73;7.55;;;;;;;10.40;50.88;99624.75;4999232;28;100175;-90
2021/10/22 01:54:21;;;;;;;9.95;7.50;;;;;;;10.45;50.91;99633.28;5008860;27;101724;-92
2021/10/22 01:56:47;;;;;;;7.95;7.13;;;;;;;10.42;51.01;99631.66;5052249;27;97062;-90
2021/10/22 01:59:12;;;;;;;9.50;7.28;;;;;;;10.47;51.18;99630.56;5030960;27;96754;-90
2021/10/22 02:01:38;;;;;;;8.45;7.07;;;;;;;10.41;51.09;99632.56;4999212;28;100183;-89
2021/10/22 02:04:04;;;;;;;10.52;7.78;;;;;;;10.28;51.08;99631.41;4985987;28;99853;-89
2021/10/22 02:06:29;;;;;;;8.38;7.57;;;;;;;10.36;51.73;99642.41;5008020;27;96735;-90
2021/10/22 02:08:55;;;;;;;9.07;7.35;;;;;;;10.37;51.33;99641.47;5019624;27;97118;-89
2021/10/22 02:11:21;;;;;;;9.25;6.70;;;;;;;10.40;51.62;99643.97;5003622;27;101109;-90
2021/10/22 02:13:46;;;;;;;8.63;7.45;;;;;;;10.23;51.33;99624.63;4999456;27;101373;-89
2021/10/22 02:16:12;;;;;;;12.82;7.90;;;;;;;10.25;51.51;99635.91;5020423;27;96761;-89
2021/10/22 02:18:38;;;;;;;9.48;8.00;;;;;;;10.30;51.52;99647.09;5018965;27;97264;-89
2021/10/22 02:21:03;;;;;;;11.25;8.90;;;;;;;10.28;52.31;99659.41;5021565;27;98567;-89
2021/10/22 02:23:29;;;;;;;11.15;8.07;;;;;;;10.23;51.70;99659.56;5022176;28;101958;-89
2021/10/22 02:25:54;;;;;;;8.98;7.78;;;;;;;10.24;51.76;99658.66;5039309;27;97087;-89
2021/10/22 02:28:20;;;;;;;8.98;8.07;;;;;;;10.14;51.63;99642.44;5034136;27;97798;-88
2021/10/22 02:30:47;;;;;;;10.02;6.95;;;;;;;10.19;51.86;99664.09;5008873;27;100017;-90
2021/10/22 02:33:13;;;;;;;10.93;7.43;;;;;;;10.14;52.28;99667.81;4999271;28;100102;-90
2021/10/22 02:35:39;;;;;;;8.65;6.82;;;;;;;10.05;52.34;99661.19;4992693;28;96624;-90
2021/10/22 02:38:05;;;;;;;10.30;7.40;;;;;;;10.16;51.90;99673.88;4999083;28;96978;-89
2021/10/22 02:40:30;;;;;;;7.53;6.50;;;;;;;10.11;52.10;99681.06;5001646;27;101557;-89
2021/10/22 02:42:56;;;;;;;8.13;6.70;;;;;;;10.05;51.45;99674.31;5019629;27;98042;-89
2021/10/22 02:45:22;;;;;;;10.00;7.40;;;;;;;10.03;51.61;99670.88;5016035;28;96681;-90
2021/10/22 02:47:48;;;;;;;9.02;6.90;;;;;;;10.10;51.93;99677.59;5027467;28;96630;-89
2021/10/22 02:50:14;;;;;;;8.32;7.20;;;;;;;10.08;52.00;99671.56;5008846;27;101386;-89
2021/10/22 02:52:40;;;;;;;10.43;6.60;;;;;;;10.05;52.22;99679.56;5016349;27;101410;-89
2021/10/22 02:55:06;;;;;;;10.35;6.53;;;;;;;9.96;51.67;99667.69;5037049;27;96851;-86
2021/10/22 02:57:32;;;;;;;9.10;6.65;;;;;;;9.97;51.82;99679.00;5018831;27;96988;-87
2021/10/22 02:59:59;;;;;;;15.45;7.13;;;;;;;9.85;52.30;99676.91;5036104;27;100141;-89
2021/10/22 03:02:25;;;;;;;7.22;6.55;;;;;;;9.89;52.44;99681.97;5014297;27;101249;-90
2021/10/22 03:04:50;;;;;;;10.35;6.95;;;;;;;9.81;52.39;99685.81;5031344;27;97152;-89
2021/10/22 03:07:16;;;;;;;7.55;6.28;;;;;;;9.85;52.36;99688.25;4999771;28;96704;-86
2021/10/22 03:09:41;;;;;;;9.90;6.88;;;;;;;9.82;52.35;99692.75;5009886;27;100330;-86
2021/10/22 03:12:07;;;;;;;10.30;7.35;;;;;;;9.84;52.12;99698.81;4994737;27;101608;-87
2021/10/22 03:14:33;;;;;;;7.70;6.90;;;;;;;9.85;52.25;99703.97;5027471;27;96939;-87
2021/10/22 03:16:58;;;;;;;9.13;7.07;;;;;;;9.85;52.46;99708.38;5019477;28;97162;-86
2021/10/22 03:19:24;;;;;;;9.82;7.57;;;;;;;9.73;52.23;99692.22;5011934;27;101035;-88
2021/10/22 03:21:50;;;;;;;10.20;6.95;;;;;;;9.74;52.29;99704.44;5013362;27;101622;-86
2021/10/22 03:24:16;;;;;;;7.93;7.13;;;;;;;9.79;51.86;99706.84;5017072;27;97710;-86
2021/10/22 03:26:43;;;;;;;7.65;7.07;;;;;;;9.80;52.42;99716.41;5021909;27;97267;-87
2021/10/22 03:29:08;;;;;;;7.60;6.82;;;;;;;9.78;52.28;99701.69;5025423;27;99775;-87
2021/10/22 03:31:35;;;;;;;10.63;7.88;;;;;;;9.75;52.25;99715.75;5018068;27;100954;-87
2021/10/22 03:34:01;;;;;;;8.50;6.88;;;;;;;9.75;52.54;99727.09;5002796;27;97065;-89
2021/10/22 03:36:26;;;;;;;8.35;6.60;;;;;;;9.75;52.60;99740.19;5034815;27;96712;-88
2021/10/22 03:38:52;;;;;;;11.80;7.45;;;;;;;9.75;52.49;99726.25;5035008;27;98174;-86
2021/10/22 03:41:18;;;;;;;12.80;7.95;;;;;;;9.77;52.42;99747.97;5000705;27;101032;-87
2021/10/22 03:43:43;;;;;;;10.65;7.50;;;;;;;9.71;52.52;99745.59;5015604;28;96692;-90
2021/10/22 03:46:09;;;;;;;11.68;6.80;;;;;;;9.68;52.46;99737.88;5000864;27;97208;-86
2021/10/22 03:48:35;;;;;;;12.50;7.25;;;;;;;9.68;52.91;99749.19;4998122;28;100702;-87
2021/10/22 03:51:00;;;;;;;12.57;7.43;;;;;;;9.60;52.94;99742.56;5029853;27;97993;-86
2021/10/22 03:53:26;;;;;;;12.63;7.68;;;;;;;9.55;52.81;99741.91;5010817;27;97554;-87
2021/10/22 03:55:52;;;;;;;7.50;6.80;;;;;;;9.59;52.90;99748.72;5022663;27;96941;-87
2021/10/22 03:58:18;;;;;;;9.52;7.20;;;;;;;9.60;52.79;99743.44;5040155;27;98099;-86
2021/10/22 04:00:47;;;;;;;9.75;7.15;;;;;;;9.55;52.84;99747.16;5019708;27;97422;-87
2021/10/22 04:03:14;;;;;;;31.55;8.23;;;;;;;9.42;53.18;99738.88;4994877;27;97249;-88
2021/10/22 04:05:42;;;;;;;17.75;6.95;;;;;;;9.50;53.18;99756.00;5001918;28;97139;-88
2021/10/22 04:08:07;;;;;;;11.98;6.00;;;;;;;9.37;53.18;99743.47;5024716;27;101886;-90
2021/10/22 04:10:33;;;;;;;9.25;5.40;;;;;;;9.45;52.96;99760.59;5004050;28;101869;-88
2021/10/22 04:13:00;;;;;;;9.70;5.00;;;;;;;9.41;53.25;99760.75;5018420;27;97231;-87
2021/10/22 04:15:26;;;;;;;13.05;6.00;;;;;;;9.30;53.31;99753.31;5036827;27;97207;-89
2021/10/22 04:17:52;;;;;;;10.48;5.32;;;;;;;9.39;52.97;99741.63;5018060;28;100915;-90
2021/10/22 04:20:18;;;;;;;9.50;5.07;;;;;;;9.42;53.51;99751.97;5022489;27;100943;-91
2021/10/22 04:22:44;;;;;;;8.15;4.30;;;;;;;9.44;53.25;99760.66;5006362;27;96725;-85
2021/10/22 04:25:10;;;;;;;9.18;5.07;;;;;;;9.40;53.19;99756.44;5001383;28;97107;-83
2021/10/22 04:27:36;;;;;;;14.55;6.28;;;;;;;9.41;53.41;99763.38;5016653;28;101734;-83
2021/10/22 04:30:07;;;;;;;8.13;5.22;;;;;;;9.40;53.05;99772.16;5017992;27;101419;-83
2021/10/22 04:32:33;;;;;;;10.23;5.43;;;;;;;9.35;53.37;99771.47;5015159;28;97068;-84
2021/10/22 04:34:58;;;;;;;10.07;5.30;;;;;;;9.31;53.30;99768.13;5017737;27;96682;-84
2021/10/22 04:37:34;;;;;;;10.23;5.07;;;;;;;9.32;53.75;99771.59;5018582;27;101482;-82
2021/10/22 04:42:49;;;;;;;10.73;5.57;;;;;;;9.21;54.08;99785.09;5017766;27;97236;-84
2021/10/22 04:45:16;;;;;;;13.73;5.97;;;;;;;9.20;54.21;99799.94;5000079;28;96902;-84
2021/10/22 04:47:41;;;;;;;11.77;5.18;;;;;;;9.16;53.50;99800.09;5021108;27;98535;-84
2021/10/22 04:50:09;;;;;;;12.43;6.28;;;;;;;9.21;53.63;99795.56;5029693;27;100975;-84
2021/10/22 04:52:35;;;;;;;12.48;5.30;;;;;;;9.17;53.61;99796.59;5011789;27;96727;-87
2021/10/22 04:55:01;;;;;;;8.30;5.45;;;;;;;9.15;53.84;99796.63;5028868;27;96939;-85
2021/10/22 04:57:27;;;;;;;12.48;5.65;;;;;;;9.20;53.56;99792.09;5023838;27;97898;-85
2021/10/22 04:59:53;;;;;;;13.07;6.30;;;;;;;9.14;53.80;99801.94;5019054;27;100275;-83
2021/10/22 05:02:18;;;;;;;9.38;5.47;;;;;;;9.07;53.79;99790.81;5017778;27;96869;-85
2021/10/22 05:04:44;;;;;;;11.02;5.20;;;;;;;9.11;53.66;99802.06;5018076;28;96825;-84
2021/10/22 05:07:09;;;;;;;11.02;5.57;;;;;;;9.03;53.68;99792.69;5016233;27;101620;-84
2021/10/22 05:09:35;;;;;;;15.48;5.72;;;;;;;8.98;53.81;99799.00;5013389;27;98545;-85
2021/10/22 05:12:05;;;;;;;15.40;6.00;;;;;;;9.01;54.21;99810.22;5031487;27;97285;-87
2021/10/22 05:14:35;;;;;;;9.18;5.55;;;;;;;8.92;54.13;99786.97;5017648;27;96871;-88
2021/10/22 05:17:00;;;;;;;8.38;4.82;;;;;;;9.05;54.01;99793.50;5012483;27;98414;-86
2021/10/22 05:19:30;;;;;;;10.10;5.80;;;;;;;8.97;54.24;99799.91;5027829;27;98359;-83
2021/10/22 05:21:55;;;;;;;13.07;5.50;;;;;;;8.94;54.18;99800.03;5028962;27;97030;-81
2021/10/22 05:24:22;;;;;;;14.05;5.63;;;;;;;8.90;54.62;99798.41;5031141;27;96811;-87
2021/10/22 05:26:48;;;;;;;9.57;5.47;;;;;;;8.80;54.41;99803.97;5035894;27;98349;-86
2021/10/22 05:29:13;;;;;;;12.18;6.38;;;;;;;8.89;54.21;99812.41;5018166;27;101172;-89
2021/10/22 05:31:39;;;;;;;12.20;5.90;;;;;;;8.91;54.42;99810.63;5020005;28;96764;-89
2021/10/22 05:34:04;;;;;;;16.35;6.28;;;;;;;8.87;54.03;99815.06;5021904;28;97220;-89
2021/10/22 05:36:30;;;;;;;10.32;5.60;;;;;;;8.92;54.40;99813.16;5025168;27;101522;-90
2021/10/22 05:38:56;;;;;;;10.43;6.15;;;;;;;8.91;54.58;99814.09;5031462;27;97495;-91
2021/10/22 05:41:22;;;;;;;12.60;6.07;;;;;;;8.96;54.55;99829.59;5044574;27;96814;-90
2021/10/22 05:43:50;;;;;;;12.27;5.90;;;;;;;8.95;54.14;99820.06;5007133;27;96912;-92
2021/10/22 05:46:18;;;;;;;10.70;5.80;;;;;;;8.96;53.67;99821.75;5019952;28;101638;-92
2021/10/22 05:48:45;;;;;;;12.98;6.85;;;;;;;8.97;53.69;99823.47;5018802;27;98088;-89
2021/10/22 05:51:11;;;;;;;10.05;5.75;;;;;;;8.92;54.13;99826.25;5006763;27;96885;-87
2021/10/22 05:53:38;;;;;;;14.07;6.32;;;;;;;8.94;53.69;99826.22;5020927;27;97020;-84
2021/10/22 05:56:04;;;;;;;17.00;6.38;;;;;;;8.93;53.72;99824.47;5037945;27;97588;-84
2021/10/22 05:58:29;;;;;;;12.63;7.15;;;;;;;8.95;54.01;99822.69;5021562;27;98959;-83
2021/10/22 06:00:55;;;;;;;17.45;6.90;;;;;;;9.13;53.27;99821.16;5004525;27;96710;-83
2021/10/22 06:03:26;;;;;;;12.93;6.47;;;;;;;9.12;53.27;99827.31;5038100;27;96754;-83
2021/10/22 06:05:53;;;;;;;17.97;6.33;;;;;;;9.20;52.87;99820.91;5037565;27;97576;-83
2021/10/22 06:08:19;;;;;;;13.23;6.78;;;;;;;9.27;52.70;99814.50;5021268;27;98222;-83
2021/10/22 06:34:03;;;;;;;13.63;6.18;;;;;;;9.76;51.45;99859.00;5052577;27;96981;-83
2021/10/22 06:36:56;;;;;;;11.68;6.60;;;;;;;9.82;51.51;99856.13;5036080;27;97943;-84
2021/10/22 06:39:22;;;;;;;14.40;6.53;;;;;;;9.84;51.51;99863.97;5000280;28;96601;-83
2021/10/22 06:41:49;;;;;;;11.25;6.32;;;;;;;9.96;51.17;99861.72;5017181;28;96885;-85
2021/10/22 06:44:17;;;;;;;23.73;7.20;;;;;;;9.88;50.74;99866.38;5017369;28;97548;-83
2021/10/22 06:46:46;;;;;;;15.88;7.10;;;;;;;9.86;51.42;99862.13;5000794;28;98049;-86
2021/10/22 06:49:15;;;;;;;14.77;6.47;;;;;;;10.14;50.48;99856.66;5000714;28;96559;-84
2021/10/22 06:51:40;;;;;;;11.52;5.47;;;;;;;10.36;49.74;99867.19;5009250;28;96662;-91
2021/10/22 06:54:07;;;;;;;9.95;5.90;;;;;;;11.18;48.30;99860.22;5006128;28;101299;-91
2021/10/22 06:56:33;;;;;;;10.82;6.28;;;;;;;11.86;46.47;99858.06;4986272;28;100150;-90
2021/10/22 06:58:59;;;;;;;12.57;6.40;;;;;;;12.19;45.17;99866.16;4978502;28;96921;-90
2021/10/22 07:01:24;;;;;;;13.80;6.40;;;;;;;12.67;44.52;99864.66;4989618;28;96882;-91
2021/10/22 07:03:50;;;;;;;13.27;6.38;;;;;;;12.90;43.81;99846.84;4996985;28;101675;-91
2021/10/22 07:09:00;;;;;;;12.82;6.30;;;;;;;13.73;42.30;99876.78;5008280;28;97241;-91
2021/10/22 07:11:26;;;;;;;12.60;6.00;;;;;;;13.93;41.53;99875.72;4974132;28;97443;-89
2021/10/22 07:13:54;;;;;;;16.88;6.88;;;;;;;14.13;40.87;99883.38;4979460;28;101729;-91
2021/10/22 07:16:20;;;;;;;8.75;5.40;;;;;;;14.33;40.58;99882.25;4974065;28;101408;-90
2021/10/22 07:18:50;;;;;;;11.65;6.10;;;;;;;14.39;40.12;99881.91;5009713;28;97715;-91
2021/10/22 07:21:17;;;;;;;11.23;5.80;;;;;;;14.73;39.93;99887.09;4996785;28;97204;-90
2021/10/22 07:23:50;;;;;;;12.55;5.40;;;;;;;15.12;39.25;99895.31;4978414;27;100717;-89
2021/10/22 07:26:18;;;;;;;14.38;5.50;;;;;;;15.60;39.08;99887.16;5002790;28;98971;-91
2021/10/22 07:28:48;;;;;;;11.07;6.38;;;;;;;15.85;38.06;99886.50;5002121;28;96870;-89
2021/10/22 07:31:13;;;;;;;13.75;5.72;;;;;;;16.23;37.92;99891.16;5021546;27;97320;-90
2021/10/22 07:33:41;;;;;;;10.23;6.05;;;;;;;16.71;37.22;99886.28;5004285;28;98397;-90
2021/10/22 07:36:14;;;;;;;11.23;6.13;;;;;;;16.87;36.54;99887.00;5003324;27;98356;-89
2021/10/22 07:38:43;;;;;;;11.75;5.78;;;;;;;17.29;35.91;99894.78;5005582;28;97651;-90
2021/10/22 07:41:08;;;;;;;10.77;6.68;;;;;;;17.69;35.54;99892.03;4979526;28;96958;-89
2021/10/22 07:43:35;;;;;;;13.20;5.88;;;;;;;18.11;34.48;99898.75;5016528;28;97928;-90
2021/10/22 07:46:01;;;;;;;14.43;5.70;;;;;;;18.73;33.73;99895.09;4983068;27;101451;-89
2021/10/22 07:48:27;;;;;;;14.48;6.30;;;;;;;19.76;32.07;99896.13;5000232;28;97040;-89
2021/10/22 07:50:53;;;;;;;11.25;6.65;;;;;;;20.12;31.16;99894.16;4980603;28;96864;-89
2021/10/22 07:53:19;;;;;;;11.35;6.65;;;;;;;21.10;30.32;99894.06;4982849;28;100448;-88
2021/10/22 07:55:44;;;;;;;8.73;6.15;;;;;;;22.26;29.00;99893.81;4984018;28;100316;-89
2021/10/22 07:58:10;;;;;;;13.50;7.22;;;;;;;22.44;27.75;99891.31;5000452;27;97274;-89
2021/10/22 08:00:36;;;;;;;9.98;6.35;;;;;;;23.26;27.06;99887.38;4982399;28;96837;-87
2021/10/22 08:03:02;;;;;;;12.63;7.03;;;;;;;23.43;26.52;99878.59;4996665;28;97177;-88
2021/10/22 08:05:28;;;;;;;7.47;6.57;;;;;;;24.05;25.75;99895.00;4976172;28;99992;-88
2021/10/22 08:07:54;;;;;;;10.93;6.55;;;;;;;22.57;27.21;99889.25;4989453;28;96751;-89
2021/10/22 08:10:19;;;;;;;12.65;6.63;;;;;;;21.25;28.95;99883.91;5019666;27;97045;-88
2021/10/22 08:12:46;;;;;;;7.43;6.13;;;;;;;19.78;31.18;99886.19;5002381;28;98173;-88
2021/10/22 08:15:12;;;;;;;8.27;6.25;;;;;;;19.38;31.37;99886.63;5005382;27;100130;-88
2021/10/22 08:17:38;;;;;;;12.65;6.65;;;;;;;18.39;32.96;99878.19;5006554;28;96704;-88
2021/10/22 08:20:06;;;;;;;8.13;6.15;;;;;;;17.78;33.69;99883.44;5007504;27;97221;-88
2021/10/22 08:22:33;;;;;;;11.60;6.57;;;;;;;18.33;32.85;99882.97;4972948;28;101615;-88
2021/10/22 08:25:05;;;;;;;8.48;6.70;;;;;;;18.43;32.47;99882.28;5002628;28;100310;-88
2021/10/22 08:27:42;;;;;;;11.05;6.72;;;;;;;18.18;32.84;99897.38;4984304;28;96982;-87
2021/10/22 08:30:14;;;;;;;11.90;6.40;;;;;;;21.05;29.76;99893.63;5025669;27;96732;-89
2021/10/22 08:32:41;;;;;;;8.70;6.43;;;;;;;22.99;27.36;99880.94;5003421;28;99882;-88
2021/10/22 08:35:08;;;;;;;10.43;6.88;;;;;;;24.20;26.03;99884.63;5011990;27;101012;-88
2021/10/22 08:37:37;;;;;;;8.82;6.57;;;;;;;24.33;25.23;99879.75;4994034;28;97162;-88
2021/10/22 08:40:04;;;;;;;10.93;7.47;;;;;;;24.58;25.11;99880.00;5007742;28;96804;-86
2021/10/22 08:42:30;;;;;;;9.40;6.22;;;;;;;25.67;24.20;99871.63;4993770;27;101368;-87
2021/10/22 08:44:56;;;;;;;9.60;6.07;;;;;;;25.03;24.73;99873.72;4999376;28;102085;-86
2021/10/22 08:47:26;;;;;;;9.73;6.22;;;;;;;25.24;24.10;99876.91;5001909;28;96740;-86
2021/10/22 08:49:55;;;;;;;7.80;5.97;;;;;;;22.95;26.26;99871.53;4987389;28;96872;-87
2021/10/22 08:52:21;;;;;;;8.55;6.07;;;;;;;23.36;26.46;99869.47;5012904;28;98005;-86
2021/10/22 08:54:46;;;;;;;11.55;6.32;;;;;;;24.65;24.77;99875.75;5001814;27;101834;-86
2021/10/22 08:57:12;;;;;;;7.10;6.20;;;;;;;25.68;24.09;99866.06;4995853;28;96778;-86
2021/10/22 08:59:37;;;;;;;10.93;5.95;;;;;;;26.40;23.18;99858.44;5015713;28;96999;-86
2021/10/22 09:02:16;;;;;;;9.18;6.10;;;;;;;26.98;22.30;99855.84;4998437;28;101661;-86
2021/10/22 09:04:49;;;;;;;9.15;6.22;;;;;;;26.54;22.34;99856.16;4996132;28;101211;-86
2021/10/22 09:07:17;;;;;;;8.57;5.85;;;;;;;26.73;22.25;99853.13;4995898;27;96827;-87
2021/10/22 09:10:03;;;;;;;9.77;6.30;;;;;;;27.25;22.08;99849.25;5001102;28;96884;-88
2021/10/22 09:12:56;;;;;;;8.30;5.60;;;;;;;26.90;21.86;99851.28;5044395;27;100596;-90
2021/10/22 09:15:32;;;;;;;6.80;5.85;;;;;;;26.86;21.69;99836.50;5018081;28;101951;-87
2021/10/22 09:17:59;;;;;;;7.22;5.80;;;;;;;27.75;23.91;99846.25;5019852;28;97149;-92
2021/10/22 09:20:26;;;;;;;8.07;5.93;;;;;;;27.53;22.20;99842.44;5019072;28;97279;-92
2021/10/22 09:22:52;;;;;;;9.35;6.70;;;;;;;28.43;21.98;99846.63;5004571;28;100606;-93
2021/10/22 09:25:23;;;;;;;9.25;7.15;;;;;;;28.11;21.15;99836.84;5013757;28;100314;-91
2021/10/22 09:27:52;;;;;;;8.57;7.85;;;;;;;27.76;21.70;99830.91;5015432;28;96684;-83
2021/10/22 09:30:24;;;;;;;9.00;8.10;;;;;;;27.26;21.25;99832.94;5014121;28;96979;-81
2021/10/22 09:32:53;;;;;;;8.45;7.65;;;;;;;26.70;21.32;99828.41;5013348;28;101612;-80
2021/10/22 09:35:36;;;;;;;10.32;7.50;;;;;;;26.19;21.71;99821.25;4981336;28;101411;-93
2021/10/22 09:38:17;;;;;;;10.30;7.55;;;;;;;25.89;22.33;99828.09;5007462;27;96857;-94
2021/10/22 09:40:44;;;;;;;8.02;7.32;;;;;;;25.35;22.66;99829.31;5009422;28;97230;-83
2021/10/22 09:43:28;;;;;;;9.38;7.50;;;;;;;25.15;22.69;99823.31;4978222;28;101332;-83
2021/10/22 09:46:19;;;;;;;7.85;6.95;;;;;;;24.36;23.70;99820.44;5012357;27;103038;-86
2021/10/22 09:48:51;;;;;;;7.53;6.78;;;;;;;24.15;24.31;99814.53;4996928;28;96744;-84
2021/10/22 09:51:34;;;;;;;7.45;6.03;;;;;;;23.90;24.13;99824.97;5010973;28;96654;-79
2021/10/22 09:54:14;;;;;;;7.00;6.38;;;;;;;23.34;24.85;99819.72;4997881;27;97672;-87
2021/10/22 09:56:42;;;;;;;6.82;6.05;;;;;;;23.30;24.76;99816.50;5016721;27;98108;-82
2021/10/22 09:59:23;;;;;;;13.15;6.53;;;;;;;23.31;24.90;99814.66;4988267;27;96809;-86
2021/10/22 10:01:49;;;;;;;5.68;5.05;;;;;;;22.82;24.89;99818.25;4980647;28;97084;-87
2021/10/22 10:04:15;;;;;;;7.40;5.88;;;;;;;23.04;24.62;99824.31;4997135;28;101110;-89
2021/10/22 10:06:43;;;;;;;9.93;6.53;;;;;;;22.36;25.29;99800.25;4998197;28;100338;-87
2021/10/22 10:09:11;;;;;;;6.63;5.93;;;;;;;22.19;25.97;99811.63;4995570;28;98083;-90
2021/10/22 10:11:43;;;;;;;10.25;6.47;;;;;;;21.42;26.64;99821.09;4997819;28;96871;-89
2021/10/22 10:14:12;;;;;;;6.20;5.60;;;;;;;21.46;26.35;99804.66;5012816;28;97963;-91
2021/10/22 10:16:38;;;;;;;9.05;6.38;;;;;;;21.77;26.99;99798.47;5015055;27;98312;-89
2021/10/22 10:19:08;;;;;;;8.07;6.63;;;;;;;21.01;28.08;99818.31;5012316;28;96810;-91
2021/10/22 10:21:40;;;;;;;9.45;6.55;;;;;;;21.00;28.03;99800.63;4992683;27;96883;-91
2021/10/22 10:24:06;;;;;;;7.40;6.40;;;;;;;20.78;28.51;99809.63;4994467;28;102161;-91
2021/10/22 10:26:33;;;;;;;10.75;5.57;;;;;;;19.73;28.61;99810.31;4996453;27;101260;-89
2021/10/22 10:29:02;;;;;;;5.88;4.32;;;;;;;19.04;28.86;99800.59;4988888;28;97018;-95
2021/10/22 10:31:34;;;;;;;6.63;5.55;;;;;;;19.12;28.92;99795.53;5035133;27;96767;-90
2021/10/22 10:34:02;;;;;;;9.50;5.35;;;;;;;19.25;28.75;99792.75;5017827;28;97600;-87
2021/10/22 10:36:48;;;;;;;7.60;5.40;;;;;;;19.25;28.82;99783.91;5013381;27;100270;-94
2021/10/22 10:39:14;;;;;;;6.55;5.25;;;;;;;19.35;29.13;99783.09;5015192;28;96810;-93
2021/10/22 10:41:40;;;;;;;8.90;5.90;;;;;;;19.24;29.79;99788.41;4992991;28;96600;-95
2021/10/22 10:44:22;;;;;;;6.53;5.90;;;;;;;18.70;31.03;99794.31;5101938;22;98807;-93
2021/10/22 10:52:38;;;;;;;8.38;5.85;;;;;;;17.37;33.43;99800.47;4956495;22;97501;-93
2021/10/22 10:55:27;;;;;;;14.68;6.18;;;;;;;17.38;33.36;99796.00;4944332;23;101424;-96
2021/10/22 10:57:54;;;;;;;9.40;5.60;;;;;;;17.21;33.62;99797.16;4881798;28;97384;-93
2021/10/22 11:00:32;;;;;;;8.60;6.20;;;;;;;16.85;33.60;99772.25;4905844;28;98211;-89
2021/10/22 11:03:01;;;;;;;6.93;5.68;;;;;;;16.36;34.69;99787.94;4904194;23;98212;-95
2021/10/22 11:05:45;;;;;;;6.18;5.57;;;;;;;16.48;34.77;99780.00;4867655;28;98460;-96
2021/10/22 11:08:14;;;;;;;8.38;5.68;;;;;;;16.66;34.62;99783.22;4850722;28;99199;-95
2021/10/22 11:11:09;;;;;;;9.05;6.18;;;;;;;16.62;34.02;99776.44;4838357;29;97479;-92
2021/10/22 11:13:48;;;;;;;12.18;6.38;;;;;;;16.72;34.29;99780.16;4844570;28;96792;-94
2021/10/22 11:18:52;;;;;;;11.50;4.97;;;;;;;16.81;33.15;99769.91;4855103;28;97269;-96
2021/10/22 11:21:19;;;;;;;6.93;5.05;;;;;;;16.79;33.72;99775.34;4839734;29;96909;-96
2021/10/22 11:23:45;;;;;;;11.25;6.30;;;;;;;16.67;34.16;99771.69;4839538;29;99216;-95
2021/10/22 11:26:19;;;;;;;13.18;5.28;;;;;;;16.52;34.01;99773.56;4833632;29;97960;-92
2021/10/22 11:29:17;;;;;;;9.20;5.50;;;;;;;16.13;34.53;99774.41;4840124;28;101440;-96
2021/10/22 11:31:44;;;;;;;6.20;5.50;;;;;;;15.72;35.59;99774.44;4851648;28;96767;-93
2021/10/22 11:34:21;;;;;;;8.27;4.50;;;;;;;15.61;35.56;99761.88;4855610;28;96896;-96
2021/10/22 11:37:05;;;;;;;10.38;5.68;;;;;;;15.72;35.49;99769.16;4840047;29;101689;-96
2021/10/22 11:39:35;;;;;;;5.50;4.95;;;;;;;15.70;35.76;99771.88;4829276;28;101415;-96
2021/10/22 11:42:07;;;;;;;6.13;4.70;;;;;;;15.62;35.76;99769.72;4836393;29;96806;-96
2021/10/22 11:44:37;;;;;;;10.07;5.30;;;;;;;15.68;35.55;99757.06;4841243;28;96822;-93
2021/10/22 11:47:03;;;;;;;5.90;5.10;;;;;;;15.36;35.85;99768.72;4821863;29;100607;-96
2021/10/22 11:49:29;;;;;;;8.88;5.22;;;;;;;15.36;36.29;99773.16;4823383;29;101485;-96
2021/10/22 11:51:57;;;;;;;9.95;5.43;;;;;;;15.38;36.31;99758.03;4839450;28;97237;-95
2021/10/22 11:54:28;;;;;;;10.38;4.88;;;;;;;15.31;36.04;99754.94;4857726;28;97145;-95
2021/10/22 11:56:54;;;;;;;7.85;4.57;;;;;;;15.24;36.53;99769.50;4841152;29;101150;-92
2021/10/22 11:59:20;;;;;;;11.35;4.63;;;;;;;15.15;36.48;99760.34;4850708;28;100679;-92
2021/10/22 12:01:45;;;;;;;5.82;5.22;;;;;;;15.18;36.72;99746.03;4838728;29;96841;-89
2021/10/22 12:04:25;;;;;;;6.82;4.43;;;;;;;15.45;36.30;99767.28;4841277;28;97195;-89
2021/10/22 12:06:59;;;;;;;6.03;4.93;;;;;;;15.32;36.39;99759.25;4829217;29;101254;-94
2021/10/22 12:09:29;;;;;;;5.90;4.82;;;;;;;15.37;36.16;99765.13;4855958;28;101403;-93
2021/10/22 12:12:05;;;;;;;7.43;4.93;;;;;;;15.16;36.86;99762.03;4840729;29;98172;-91